createdAt,value
2023-05-16T00:00:10.702Z,101822.31
2023-05-16T00:02:40.695Z,101824.00
2023-05-16T00:05:18.023Z,101812.41
2023-05-16T00:07:45.901Z,101821.25
2023-05-16T00:10:12.487Z,101818.72
2023-05-16T00:12:40.153Z,101819.69
2023-05-16T00:15:08.748Z,101818.63
2023-05-16T00:17:37.571Z,101815.13
2023-05-16T00:20:12.085Z,101825.03
2023-05-16T00:22:43.568Z,101828.63
2023-05-16T00:25:10.156Z,101817.84
2023-05-16T00:27:36.718Z,101826.00
2023-05-16T00:30:04.573Z,101828.66
2023-05-16T00:32:35.416Z,101826.03
2023-05-16T00:35:02.252Z,101823.41
2023-05-16T00:37:28.795Z,101825.13
2023-05-16T00:39:58.335Z,101834.91
2023-05-16T00:42:25.013Z,101823.38
2023-05-16T00:44:51.588Z,101824.22
2023-05-16T00:47:18.132Z,101824.34
2023-05-16T00:49:47.387Z,101827.75
2023-05-16T00:52:14.035Z,101817.22
2023-05-16T00:54:43.076Z,101821.72
2023-05-16T00:57:09.903Z,101827.94
2023-05-16T00:59:36.591Z,101820.78
2023-05-16T01:02:03.208Z,101822.59
2023-05-16T01:04:29.845Z,101821.66
2023-05-16T01:06:57.217Z,101827.97
2023-05-16T01:09:23.894Z,101830.75
2023-05-16T01:12:01.679Z,101822.53
2023-05-16T01:14:49.189Z,101819.81
2023-05-16T01:17:20.283Z,101821.69
2023-05-16T01:20:21.975Z,101818.97
2023-05-16T01:23:04.030Z,101821.75
2023-05-16T01:26:00.667Z,101819.19
2023-05-16T01:28:28.031Z,101820.78
2023-05-16T01:30:57.147Z,101818.09
2023-05-16T01:33:23.715Z,101818.31
2023-05-16T01:36:01.086Z,101817.19
2023-05-16T01:38:41.924Z,101815.50
2023-05-16T01:41:42.593Z,101817.22
2023-05-16T01:44:37.648Z,101817.31
2023-05-16T01:47:12.081Z,101815.66
2023-05-16T01:49:58.685Z,101812.00
2023-05-16T01:52:40.202Z,101812.03
2023-05-16T01:55:10.895Z,101815.66
2023-05-16T01:57:41.106Z,101813.78
2023-05-16T02:00:10.849Z,101815.66
2023-05-16T02:02:37.540Z,101816.47
2023-05-16T02:05:07.222Z,101813.78
2023-05-16T02:07:35.369Z,101812.00
2023-05-16T02:10:08.093Z,101814.75
2023-05-16T02:12:38.603Z,101813.91
2023-05-16T02:15:05.971Z,101815.66
2023-05-16T02:17:32.549Z,101822.00
2023-05-16T02:19:59.739Z,101819.34
2023-05-16T02:22:26.306Z,101821.03
2023-05-16T02:24:54.814Z,101822.00
2023-05-16T02:27:42.988Z,101817.59
2023-05-16T02:30:14.078Z,101813.94
2023-05-16T02:32:41.189Z,101820.25
2023-05-16T02:35:09.774Z,101812.16
2023-05-16T02:37:36.593Z,101817.59
2023-05-16T02:40:05.791Z,101817.53
2023-05-16T02:42:32.536Z,101815.81
2023-05-16T02:44:59.111Z,101818.47
2023-05-16T02:47:28.692Z,101821.28
2023-05-16T02:49:55.357Z,101821.16
2023-05-16T02:52:21.899Z,101823.03
2023-05-16T02:54:59.841Z,101821.16
2023-05-16T02:57:35.744Z,101815.00
2023-05-16T03:00:06.367Z,101814.03
2023-05-16T03:02:33.275Z,101819.50
2023-05-16T03:04:59.996Z,101818.53
2023-05-16T03:07:26.558Z,101822.91
2023-05-16T03:09:53.111Z,101816.78
2023-05-16T03:12:19.659Z,101812.34
2023-05-16T03:14:46.281Z,101808.69
2023-05-16T03:17:12.839Z,101815.00
2023-05-16T03:19:40.329Z,101818.63
2023-05-16T03:22:06.890Z,101824.97
2023-05-16T03:24:34.368Z,101824.94
2023-05-16T03:27:01.140Z,101819.59
2023-05-16T03:29:27.688Z,101821.25
2023-05-16T03:31:54.562Z,101815.00
2023-05-16T03:34:28.600Z,101825.81
2023-05-16T03:36:55.395Z,101828.53
2023-05-16T03:39:21.992Z,101824.06
2023-05-16T03:41:48.620Z,101828.63
2023-05-16T03:44:15.158Z,101833.03
2023-05-16T03:46:41.795Z,101833.03
2023-05-16T03:49:08.411Z,101836.69
2023-05-16T03:51:34.996Z,101839.31
2023-05-16T03:54:01.811Z,101839.31
2023-05-16T03:56:28.408Z,101837.59
2023-05-16T03:58:54.992Z,101837.53
2023-05-16T04:01:21.573Z,101841.09
2023-05-16T04:03:48.147Z,101837.63
2023-05-16T04:06:14.897Z,101843.03
2023-05-16T04:08:43.549Z,101844.81
2023-05-16T04:11:10.077Z,101844.75
2023-05-16T04:13:36.839Z,101834.84
2023-05-16T04:16:03.448Z,101834.00
2023-05-16T04:18:30.113Z,101834.94
2023-05-16T04:20:56.669Z,101840.34
2023-05-16T04:23:23.283Z,101843.88
2023-05-16T04:25:55.118Z,101845.78
2023-05-16T04:28:25.945Z,101851.16
2023-05-16T04:30:53.189Z,101850.16
2023-05-16T04:33:19.799Z,101862.75
2023-05-16T04:35:46.380Z,101859.19
2023-05-16T04:38:12.955Z,101863.63
2023-05-16T04:40:41.734Z,101875.31
2023-05-16T04:43:08.306Z,101868.13
2023-05-16T04:45:36.723Z,101869.94
2023-05-16T04:48:05.310Z,101869.94
2023-05-16T04:50:32.062Z,101877.16
2023-05-16T04:52:58.660Z,101878.94
2023-05-16T04:55:25.528Z,101878.97
2023-05-16T04:57:52.277Z,101886.16
2023-05-16T05:00:23.491Z,101884.31
2023-05-16T05:02:55.675Z,101884.31
2023-05-16T05:05:25.240Z,101881.63
2023-05-16T05:07:52.551Z,101889.78
2023-05-16T05:10:19.197Z,101890.63
2023-05-16T05:12:46.535Z,101892.47
2023-05-16T05:15:13.542Z,101890.72
2023-05-16T05:17:40.204Z,101899.66
2023-05-16T05:20:08.616Z,101899.66
2023-05-16T05:22:35.298Z,101895.22
2023-05-16T05:25:01.878Z,101909.50
2023-05-16T05:27:28.672Z,101898.75
2023-05-16T05:29:55.454Z,101895.19
2023-05-16T05:32:22.076Z,101904.13
2023-05-16T05:34:48.622Z,101896.03
2023-05-16T05:37:16.715Z,101902.34
2023-05-16T05:39:43.343Z,101896.94
2023-05-16T05:42:09.901Z,101901.44
2023-05-16T05:44:37.839Z,101913.13
2023-05-16T05:47:05.898Z,101907.75
2023-05-16T05:49:32.957Z,101909.53
2023-05-16T05:51:59.598Z,101905.09
2023-05-16T05:54:26.138Z,101913.16
2023-05-16T05:56:52.704Z,101919.41
2023-05-16T05:59:19.266Z,101923.91
2023-05-16T06:01:45.997Z,101926.56
2023-05-16T06:04:12.603Z,101926.56
2023-05-16T06:06:40.159Z,101922.09
2023-05-16T06:09:07.257Z,101914.88
2023-05-16T06:11:33.854Z,101931.91
2023-05-16T06:14:00.494Z,101936.41
2023-05-16T06:16:27.102Z,101939.97
2023-05-16T06:18:53.844Z,101929.22
2023-05-16T06:21:20.455Z,101947.09
2023-05-16T06:23:47.902Z,101947.09
2023-05-16T06:26:14.518Z,101955.19
2023-05-16T06:28:41.177Z,101950.69
2023-05-16T06:31:08.073Z,101952.47
2023-05-16T06:33:36.968Z,101948.84
2023-05-16T06:36:03.553Z,101951.56
2023-05-16T06:38:30.108Z,101953.34
2023-05-16T06:40:56.666Z,101961.44
2023-05-16T06:43:23.322Z,101950.69
2023-05-16T06:45:52.854Z,101956.03
2023-05-16T06:48:19.712Z,101958.69
2023-05-16T06:50:52.541Z,101959.59
2023-05-16T06:53:19.300Z,101952.47
2023-05-16T06:55:46.915Z,101950.69
2023-05-16T06:58:13.651Z,101958.75
2023-05-16T07:00:41.779Z,101960.53
2023-05-16T07:03:08.438Z,101957.84
2023-05-16T07:05:35.163Z,101965.91
2023-05-16T07:08:01.848Z,101956.94
2023-05-16T07:10:28.518Z,101961.44
2023-05-16T07:12:55.655Z,101961.44
2023-05-16T07:15:22.245Z,101972.13
2023-05-16T07:17:56.985Z,101956.06
2023-05-16T07:20:23.787Z,101963.25
2023-05-16T07:22:50.448Z,101964.16
2023-05-16T07:25:18.909Z,101964.13
2023-05-16T07:27:45.603Z,101966.81
2023-05-16T07:30:13.244Z,101957.81
2023-05-16T07:32:41.974Z,101967.69
2023-05-16T07:35:09.626Z,101973.06
2023-05-16T07:37:41.575Z,101974.84
2023-05-16T07:40:11.775Z,101970.34
2023-05-16T07:42:42.215Z,101982.88
2023-05-16T07:45:09.109Z,101983.78
2023-05-16T07:47:36.120Z,101996.28
2023-05-16T07:50:02.992Z,101989.16
2023-05-16T07:52:29.618Z,101989.16
2023-05-16T07:54:56.642Z,101984.66
2023-05-16T07:57:25.158Z,101997.22
2023-05-16T07:59:52.486Z,101990.06
2023-05-16T08:02:19.486Z,101985.56
2023-05-16T08:04:46.960Z,101988.19
2023-05-16T08:07:18.248Z,101994.50
2023-05-16T08:09:44.900Z,101982.84
2023-05-16T08:12:11.488Z,101982.78
2023-05-16T08:14:38.367Z,101989.13
2023-05-16T08:17:05.173Z,101988.19
2023-05-16T08:19:33.115Z,101990.94
2023-05-16T08:21:59.737Z,101994.50
2023-05-16T08:24:31.623Z,101993.63
2023-05-16T08:26:58.280Z,102001.66
2023-05-16T08:29:24.894Z,102006.13
2023-05-16T08:31:51.650Z,101998.06
2023-05-16T08:34:18.377Z,102000.78
2023-05-16T08:36:45.097Z,102006.16
2023-05-16T08:39:11.709Z,102007.00
2023-05-16T08:41:39.109Z,102002.50
2023-05-16T08:44:06.974Z,102007.88
2023-05-16T08:46:35.889Z,102004.34
2023-05-16T08:49:04.771Z,102007.00
2023-05-16T08:51:36.544Z,102008.81
2023-05-16T08:54:05.194Z,102006.09
2023-05-16T08:56:36.371Z,102002.53
2023-05-16T08:59:03.028Z,102008.81
2023-05-16T09:01:30.947Z,102008.81
2023-05-16T09:03:58.528Z,102020.44
2023-05-16T09:06:26.360Z,102024.00
2023-05-16T09:08:56.424Z,102024.88
2023-05-16T09:11:23.476Z,102010.56
2023-05-16T09:13:51.960Z,102012.31
2023-05-16T09:16:20.640Z,102023.94
2023-05-16T09:19:00.308Z,102014.97
2023-05-16T09:21:32.036Z,102013.22
2023-05-16T09:24:05.430Z,102015.00
2023-05-16T09:26:35.453Z,102014.03
2023-05-16T09:29:04.693Z,102022.09
2023-05-16T09:31:36.915Z,102016.75
2023-05-16T09:34:04.926Z,102023.88
2023-05-16T09:36:34.611Z,102018.50
2023-05-16T09:39:19.822Z,102024.69
2023-05-16T09:41:49.316Z,102035.41
2023-05-16T09:44:18.451Z,102021.88
2023-05-16T09:47:03.417Z,102023.66
2023-05-16T09:49:33.130Z,102039.81
2023-05-16T09:52:04.031Z,102045.19
2023-05-16T09:54:32.863Z,102042.53
2023-05-16T09:57:02.719Z,102030.91
2023-05-16T09:59:30.208Z,102032.72
2023-05-16T10:02:05.664Z,102036.31
2023-05-16T10:04:38.518Z,102036.34
2023-05-16T10:07:13.863Z,102025.47
2023-05-16T10:09:40.939Z,102027.22
2023-05-16T10:12:09.173Z,102021.72
2023-05-16T10:14:39.380Z,102033.41
2023-05-16T10:17:07.525Z,102028.94
2023-05-16T10:19:36.649Z,102040.63
2023-05-16T10:22:06.254Z,102043.34
2023-05-16T10:24:35.623Z,102039.75
2023-05-16T10:27:03.393Z,102037.00
2023-05-16T10:29:37.464Z,102035.25
2023-05-16T10:32:10.468Z,102045.03
2023-05-16T10:34:37.568Z,102036.13
2023-05-16T10:37:05.795Z,102041.44
2023-05-16T10:39:32.573Z,102036.03
2023-05-16T10:42:04.655Z,102046.81
2023-05-16T10:44:33.229Z,102037.81
2023-05-16T10:47:01.459Z,102029.66
2023-05-16T10:49:28.170Z,102028.72
2023-05-16T10:52:10.927Z,102029.53
2023-05-16T10:54:42.333Z,102030.50
2023-05-16T10:57:11.862Z,102041.19
2023-05-16T10:59:43.763Z,102034.97
2023-05-16T11:02:27.062Z,102033.97
2023-05-16T11:04:55.677Z,102033.94
2023-05-16T11:07:24.096Z,102032.22
2023-05-16T11:10:04.481Z,102029.53
2023-05-16T11:12:59.212Z,102040.34
2023-05-16T11:15:26.724Z,102041.28
2023-05-16T11:18:10.497Z,102035.91
2023-05-16T11:20:38.300Z,102039.41
2023-05-16T11:23:20.800Z,102037.59
2023-05-16T11:25:51.059Z,102036.66
2023-05-16T11:28:19.514Z,102039.34
2023-05-16T11:30:51.340Z,102042.97
2023-05-16T11:33:18.572Z,102036.59
2023-05-16T11:36:15.253Z,102048.38
2023-05-16T11:38:44.076Z,102051.91
2023-05-16T11:41:11.620Z,102048.31
2023-05-16T11:43:43.314Z,102056.41
2023-05-16T11:46:13.905Z,102064.53
2023-05-16T11:48:41.269Z,102054.56
2023-05-16T11:51:08.895Z,102059.06
2023-05-16T11:53:35.816Z,102064.47
2023-05-16T11:56:03.441Z,102063.47
2023-05-16T11:58:30.210Z,102054.53
2023-05-16T12:00:57.175Z,102048.19
2023-05-16T12:03:26.819Z,102054.47
2023-05-16T12:05:54.662Z,102052.72
2023-05-16T12:08:22.664Z,102065.25
2023-05-16T12:10:51.600Z,102057.22
2023-05-16T12:13:22.956Z,102067.97
2023-05-16T12:15:49.962Z,102069.84
2023-05-16T12:18:16.773Z,102071.63
2023-05-16T12:20:44.426Z,102082.41
2023-05-16T12:23:15.254Z,102075.28
2023-05-16T12:25:50.676Z,102078.84
2023-05-16T12:28:17.369Z,102082.41
2023-05-16T12:30:45.073Z,102080.50
2023-05-16T12:33:13.775Z,102075.94
2023-05-16T12:36:03.486Z,102072.34
2023-05-16T12:38:34.754Z,102075.91
2023-05-16T12:41:01.649Z,102084.91
2023-05-16T12:43:28.639Z,102079.41
2023-05-16T12:45:59.281Z,102078.50
2023-05-16T12:48:34.386Z,102073.09
2023-05-16T12:51:14.853Z,102085.66
2023-05-16T12:53:57.517Z,102085.59
2023-05-16T12:56:35.492Z,102082.06
2023-05-16T12:59:06.804Z,102100.09
2023-05-16T13:01:35.027Z,102098.34
2023-05-16T13:04:02.035Z,102087.47
2023-05-16T13:06:30.914Z,102105.50
2023-05-16T13:09:03.646Z,102103.63
2023-05-16T13:11:30.717Z,102100.09
2023-05-16T13:13:57.318Z,102094.69
2023-05-16T13:16:23.942Z,102104.53
2023-05-16T13:18:52.589Z,102097.34
2023-05-16T13:21:19.268Z,102092.88
2023-05-16T13:23:45.885Z,102090.19
2023-05-16T13:26:12.462Z,102095.63
2023-05-16T13:28:39.029Z,102098.25
2023-05-16T13:31:05.773Z,102090.25
2023-05-16T13:33:32.473Z,102093.72
2023-05-16T13:35:59.072Z,102098.19
2023-05-16T13:38:29.540Z,102088.31
2023-05-16T13:40:56.143Z,102090.06
2023-05-16T13:43:22.790Z,102093.69
2023-05-16T13:45:49.421Z,102087.41
2023-05-16T13:48:16.229Z,102093.72
2023-05-16T13:50:44.874Z,102089.19
2023-05-16T13:53:11.706Z,102094.63
2023-05-16T13:55:38.287Z,102093.78
2023-05-16T13:58:04.897Z,102096.50
2023-05-16T14:00:44.412Z,102094.59
2023-05-16T14:03:12.221Z,102094.56
2023-05-16T14:05:38.889Z,102103.56
2023-05-16T14:08:05.894Z,102099.97
2023-05-16T14:10:33.606Z,102101.81
2023-05-16T14:13:00.469Z,102103.69
2023-05-16T14:15:27.461Z,102101.00
2023-05-16T14:17:54.355Z,102093.81
2023-05-16T14:20:21.040Z,102097.28
2023-05-16T14:22:47.706Z,102091.97
2023-05-16T14:25:14.522Z,102086.50
2023-05-16T14:27:41.470Z,102083.00
2023-05-16T14:30:09.563Z,102092.81
2023-05-16T14:32:36.381Z,102085.59
2023-05-16T14:35:05.317Z,102080.19
2023-05-16T14:37:32.855Z,102085.59
2023-05-16T14:40:05.719Z,102085.59
2023-05-16T14:42:32.394Z,102094.59
2023-05-16T14:44:58.972Z,102090.97
2023-05-16T14:47:29.002Z,102087.38
2023-05-16T14:49:56.335Z,102090.91
2023-05-16T14:52:22.984Z,102089.13
2023-05-16T14:54:49.578Z,102090.91
2023-05-16T14:57:16.154Z,102091.75
2023-05-16T14:59:42.875Z,102094.53
2023-05-16T15:02:11.061Z,102098.09
2023-05-16T15:04:37.806Z,102090.06
2023-05-16T15:07:04.545Z,102092.75
2023-05-16T15:09:37.294Z,102090.97
2023-05-16T15:12:09.967Z,102094.56
2023-05-16T15:14:36.795Z,102099.06
2023-05-16T15:17:04.425Z,102090.13
2023-05-16T15:19:32.020Z,102093.69
2023-05-16T15:21:58.677Z,102092.75
2023-05-16T15:24:26.815Z,102103.56
2023-05-16T15:26:59.483Z,102112.56
2023-05-16T15:29:26.311Z,102115.25
2023-05-16T15:31:52.945Z,102105.44
2023-05-16T15:34:19.541Z,102108.09
2023-05-16T15:36:46.180Z,102109.03
2023-05-16T15:39:22.426Z,102112.59
2023-05-16T15:42:05.718Z,102105.44
2023-05-16T15:44:35.695Z,102108.16
2023-05-16T15:47:02.520Z,102118.03
2023-05-16T15:49:32.198Z,102112.59
2023-05-16T15:51:58.845Z,102114.41
2023-05-16T15:54:25.673Z,102116.22
2023-05-16T15:56:52.263Z,102120.69
2023-05-16T15:59:18.925Z,102116.19
2023-05-16T16:01:45.719Z,102109.00
2023-05-16T16:04:12.376Z,102103.63
2023-05-16T16:06:38.954Z,102114.38
2023-05-16T16:09:05.718Z,102103.66
2023-05-16T16:11:32.329Z,102110.81
2023-05-16T16:13:58.990Z,102103.69
2023-05-16T16:16:25.810Z,102103.69
2023-05-16T16:18:53.489Z,102114.38
2023-05-16T16:21:20.698Z,102110.88
2023-05-16T16:23:47.366Z,102116.19
2023-05-16T16:26:14.003Z,102111.69
2023-05-16T16:28:40.630Z,102120.75
2023-05-16T16:31:07.357Z,102118.03
2023-05-16T16:33:34.650Z,102123.50
2023-05-16T16:36:01.458Z,102116.31
2023-05-16T16:38:28.075Z,102123.47
2023-05-16T16:40:54.658Z,102121.69
2023-05-16T16:43:21.300Z,102127.94
2023-05-16T16:45:48.117Z,102127.06
2023-05-16T16:48:14.703Z,102132.47
2023-05-16T16:50:41.593Z,102128.84
2023-05-16T16:53:08.459Z,102135.16
2023-05-16T16:55:35.986Z,102127.97
2023-05-16T16:58:06.864Z,102126.16
2023-05-16T17:00:33.538Z,102124.38
2023-05-16T17:03:00.542Z,102127.94
2023-05-16T17:05:27.540Z,102126.16
2023-05-16T17:07:54.329Z,102126.09
2023-05-16T17:10:21.686Z,102132.34
2023-05-16T17:12:49.867Z,102122.56
2023-05-16T17:15:20.054Z,102133.31
2023-05-16T17:17:47.854Z,102133.28
2023-05-16T17:20:14.678Z,102138.72
2023-05-16T17:22:41.680Z,102136.00
2023-05-16T17:25:08.582Z,102137.75
2023-05-16T17:27:35.245Z,102144.97
2023-05-16T17:30:01.847Z,102149.50
2023-05-16T17:32:28.509Z,102138.72
2023-05-16T17:34:55.343Z,102142.25
2023-05-16T17:37:23.618Z,102143.19
2023-05-16T17:39:53.345Z,102146.72
2023-05-16T17:42:29.110Z,102139.59
2023-05-16T17:45:03.594Z,102145.00
2023-05-16T17:47:30.301Z,102151.31
2023-05-16T17:49:57.192Z,102163.91
2023-05-16T17:52:23.935Z,102154.06
2023-05-16T17:54:50.559Z,102169.31
2023-05-16T17:57:17.179Z,102166.59
2023-05-16T17:59:43.793Z,102160.34
2023-05-16T18:02:10.400Z,102163.03
2023-05-16T18:04:38.176Z,102154.06
2023-05-16T18:07:08.276Z,102161.19
2023-05-16T18:09:34.923Z,102170.19
2023-05-16T18:12:01.693Z,102176.50
2023-05-16T18:14:28.283Z,102178.28
2023-05-16T18:16:54.900Z,102180.06
2023-05-16T18:19:22.949Z,102182.75
2023-05-16T18:21:49.903Z,102190.88
2023-05-16T18:24:16.588Z,102189.97
2023-05-16T18:26:44.460Z,102197.16
2023-05-16T18:29:11.295Z,102206.13
2023-05-16T18:31:41.163Z,102199.88
2023-05-16T18:34:09.167Z,102199.00
2023-05-16T18:36:35.777Z,102199.00
2023-05-16T18:39:04.865Z,102205.22
2023-05-16T18:41:31.449Z,102204.28
2023-05-16T18:43:58.034Z,102213.31
2023-05-16T18:46:24.611Z,102209.75
2023-05-16T18:48:52.808Z,102209.72
2023-05-16T18:51:19.463Z,102203.50
2023-05-16T18:53:46.054Z,102203.50
2023-05-16T18:56:12.675Z,102206.19
2023-05-16T18:58:39.303Z,102214.28
2023-05-16T19:01:06.993Z,102201.69
2023-05-16T19:03:33.755Z,102202.63
2023-05-16T19:06:00.610Z,102202.69
2023-05-16T19:08:33.865Z,102216.13
2023-05-16T19:11:07.276Z,102210.72
2023-05-16T19:13:34.917Z,102215.25
2023-05-16T19:16:01.895Z,102228.69
2023-05-16T19:18:28.712Z,102226.03
2023-05-16T19:20:55.757Z,102224.22
2023-05-16T19:23:23.160Z,102218.84
2023-05-16T19:25:49.821Z,102219.75
2023-05-16T19:28:16.748Z,102230.50
2023-05-16T19:30:46.458Z,102228.75
2023-05-16T19:33:22.189Z,102231.44
2023-05-16T19:35:51.552Z,102226.06
2023-05-16T19:38:19.791Z,102236.81
2023-05-16T19:40:50.461Z,102235.03
2023-05-16T19:43:18.165Z,102235.03
2023-05-16T19:45:47.803Z,102242.25
2023-05-16T19:48:17.132Z,102245.81
2023-05-16T19:50:43.813Z,102240.47
2023-05-16T19:53:12.690Z,102242.25
2023-05-16T19:55:45.118Z,102241.34
2023-05-16T19:58:14.317Z,102242.25
2023-05-16T20:00:43.545Z,102242.28
2023-05-16T20:03:10.381Z,102246.78
2023-05-16T20:05:36.986Z,102250.34
2023-05-16T20:08:03.635Z,102244.09
2023-05-16T20:10:30.316Z,102244.09
2023-05-16T20:12:56.895Z,102253.09
2023-05-16T20:15:23.513Z,102247.72
2023-05-16T20:17:50.129Z,102238.78
2023-05-16T20:20:16.699Z,102245.03
2023-05-16T20:22:44.084Z,102245.94
2023-05-16T20:25:13.655Z,102243.28
2023-05-16T20:27:46.933Z,102237.03
2023-05-16T20:30:14.166Z,102235.22
2023-05-16T20:32:41.217Z,102237.00
2023-05-16T20:35:10.900Z,102231.63
2023-05-16T20:37:43.057Z,102236.16
2023-05-16T20:40:12.337Z,102235.25
2023-05-16T20:42:38.995Z,102246.00
2023-05-16T20:45:08.871Z,102245.09
2023-05-16T20:47:37.899Z,102246.03
2023-05-16T20:50:04.857Z,102244.22
2023-05-16T20:52:31.468Z,102248.69
2023-05-16T20:55:01.588Z,102245.13
2023-05-16T20:57:31.073Z,102246.06
2023-05-16T20:59:57.795Z,102241.56
2023-05-16T21:02:27.170Z,102241.56
2023-05-16T21:04:56.048Z,102237.97
2023-05-16T21:07:22.759Z,102243.34
2023-05-16T21:09:49.382Z,102248.75
2023-05-16T21:12:20.333Z,102252.34
2023-05-16T21:14:46.957Z,102256.81
2023-05-16T21:17:13.603Z,102242.47
2023-05-16T21:19:41.706Z,102257.72
2023-05-16T21:22:08.820Z,102249.66
2023-05-16T21:24:47.957Z,102244.28
2023-05-16T21:27:14.697Z,102247.84
2023-05-16T21:29:41.395Z,102256.81
2023-05-16T21:32:09.229Z,102261.28
2023-05-16T21:34:38.736Z,102255.00
2023-05-16T21:37:07.240Z,102262.19
2023-05-16T21:39:40.515Z,102262.19
2023-05-16T21:42:07.215Z,102274.75
2023-05-16T21:44:33.890Z,102265.75
2023-05-16T21:47:08.529Z,102272.06
2023-05-16T21:49:35.980Z,102264.88
2023-05-16T21:52:07.330Z,102268.44
2023-05-16T21:54:34.502Z,102263.09
2023-05-16T21:57:01.090Z,102270.25
2023-05-16T21:59:27.698Z,102270.25
2023-05-16T22:01:54.296Z,102264.00
2023-05-16T22:04:21.005Z,102271.16
2023-05-16T22:06:47.766Z,102264.88
2023-05-16T22:09:16.979Z,102266.69
2023-05-16T22:11:45.878Z,102267.56
2023-05-16T22:14:12.510Z,102263.09
2023-05-16T22:16:42.025Z,102266.66
2023-05-16T22:19:09.220Z,102266.69
2023-05-16T22:21:36.099Z,102272.94
2023-05-16T22:24:03.238Z,102276.53
2023-05-16T22:26:29.903Z,102281.91
2023-05-16T22:28:56.497Z,102293.56
2023-05-16T22:31:23.074Z,102298.03
2023-05-16T22:33:49.712Z,102289.97
2023-05-16T22:36:16.350Z,102303.38
2023-05-16T22:38:44.260Z,102296.25
2023-05-16T22:41:10.952Z,102307.00
2023-05-16T22:43:38.385Z,102306.09
2023-05-16T22:46:06.596Z,102311.47
2023-05-16T22:48:38.877Z,102306.97
2023-05-16T22:51:08.096Z,102315.97
2023-05-16T22:53:34.727Z,102322.19
2023-05-16T22:56:01.508Z,102319.53
2023-05-16T22:58:28.089Z,102324.00
2023-05-16T23:00:56.266Z,102318.63
2023-05-16T23:03:27.866Z,102321.31
2023-05-16T23:05:54.982Z,102328.50
2023-05-16T23:08:25.767Z,102328.47
2023-05-16T23:10:54.109Z,102329.38
2023-05-16T23:13:20.796Z,102328.47
2023-05-16T23:15:47.385Z,102324.88
2023-05-16T23:18:14.034Z,102319.50
2023-05-16T23:20:41.771Z,102315.06
2023-05-16T23:23:13.759Z,102323.97
2023-05-16T23:25:40.413Z,102332.97
2023-05-16T23:28:07.046Z,102326.69
2023-05-16T23:30:33.641Z,102322.22
2023-05-16T23:33:00.312Z,102323.97
2023-05-16T23:35:27.082Z,102331.16
2023-05-16T23:37:54.288Z,102330.28
2023-05-16T23:40:20.883Z,102329.38
2023-05-16T23:42:54.853Z,102328.47
2023-05-16T23:45:25.892Z,102333.84
2023-05-16T23:47:52.727Z,102341.00
2023-05-16T23:50:24.183Z,102339.19
2023-05-16T23:52:50.773Z,102347.25
2023-05-16T23:55:17.384Z,102337.38
2023-05-16T23:57:43.992Z,102330.25
